Terminal Aerodrome Forecast
Issued by NWS Cleveland, OH

Home | Current Version | Previous Version | Graphics & Text | Print | Product List | Glossary On
Versions: 1 2 3 4 5 6 7 8 9 10 11 12 13 14 15 16 17 18 19 20 21 22 23 24
000
FTUS41 KCLE 281600 AAB
TAFYNG
TAF AMD
KYNG 281606Z 2816/2912 27008KT P6SM SCT025 BKN035
      TEMPO 2816/2819 2SM -SHSN BKN025 OVC035
     FM281900 24008KT P6SM BKN050
     FM290100 22006KT P6SM -SHSN OVC070=

USA.gov is the U.S. government's official web portal to all federal, state and local government web resources and services.